Time;durP1;ratioP1;P1;durP2;ratioP2;P2;SDS_P1;SDS_P2;PMS_P1;PMS_P2;Temp;Humidity;BMP_temperature;BMP_pressure;BME280_temperature;BME280_humidity;BME280_pressure;Samples;Min_cycle;Max_cycle;Signal;HPM_P1;HPM_P2
2022/08/30 00:03:44;;;;;;;0.30;0.30;;;17.80;99.90;;;;;;5086605;28;20253;-81
2022/08/30 00:06:11;;;;;;;1.20;0.73;;;17.80;99.90;;;;;;5088053;28;20271;-81
2022/08/30 00:08:37;;;;;;;0.30;0.30;;;17.90;99.90;;;;;;5089707;28;20205;-81
2022/08/30 00:11:05;;;;;;;0.27;0.27;;;17.90;99.90;;;;;;5094355;28;20188;-81
2022/08/30 00:13:30;;;;;;;0.47;0.47;;;18.00;99.90;;;;;;5088130;28;20795;-81
2022/08/30 00:15:57;;;;;;;0.20;0.20;;;17.90;99.90;;;;;;5086772;28;20287;-81
2022/08/30 00:18:23;;;;;;;0.63;0.33;;;18.00;99.90;;;;;;5091139;28;20236;-80
2022/08/30 00:20:49;;;;;;;3.27;0.50;;;18.10;99.90;;;;;;5088798;28;20267;-80
2022/08/30 00:23:16;;;;;;;0.30;0.30;;;18.10;99.90;;;;;;5085483;28;20720;-80
2022/08/30 00:25:43;;;;;;;0.20;0.20;;;18.20;99.90;;;;;;5086886;28;20200;-80
2022/08/30 00:28:09;;;;;;;0.30;0.30;;;18.10;99.90;;;;;;5090802;28;20227;-80
2022/08/30 00:30:35;;;;;;;0.87;0.50;;;18.10;99.90;;;;;;5092190;28;20180;-80
2022/08/30 00:33:01;;;;;;;1.03;0.60;;;18.00;99.90;;;;;;5092798;28;20176;-80
2022/08/30 00:35:27;;;;;;;0.40;0.40;;;18.00;99.90;;;;;;5078698;28;20691;-80
2022/08/30 00:37:53;;;;;;;0.97;0.77;;;17.80;99.90;;;;;;5093985;28;20585;-80
2022/08/30 00:40:19;;;;;;;0.60;0.60;;;17.80;99.90;;;;;;5093893;28;20204;-80
2022/08/30 00:42:46;;;;;;;0.20;0.20;;;17.80;99.90;;;;;;5086282;28;20176;-80
2022/08/30 00:45:25;;;;;;;0.40;0.40;;;17.80;99.90;;;;;;5093736;28;20173;-80
2022/08/30 00:47:50;;;;;;;0.60;0.47;;;17.90;99.90;;;;;;5081007;28;20180;-80
2022/08/30 00:50:20;;;;;;;0.20;0.20;;;17.90;99.90;;;;;;5079984;28;20229;-80
2022/08/30 00:52:49;;;;;;;0.40;0.30;;;17.90;99.90;;;;;;5091610;28;20180;-80
2022/08/30 00:55:17;;;;;;;0.20;0.20;;;17.80;99.90;;;;;;5081777;28;20195;-80
2022/08/30 00:57:44;;;;;;;0.63;0.63;;;17.80;99.90;;;;;;5082251;28;20231;-80
2022/08/30 01:00:11;;;;;;;0.50;0.50;;;17.70;99.90;;;;;;5090604;28;20192;-80
2022/08/30 01:02:38;;;;;;;0.20;0.20;;;17.70;99.90;;;;;;5080154;28;20231;-80
2022/08/30 01:05:07;;;;;;;0.10;0.10;;;17.60;99.90;;;;;;5079897;28;20177;-80
2022/08/30 01:07:33;;;;;;;0.40;0.40;;;17.60;99.90;;;;;;5076191;28;20185;-80
2022/08/30 01:09:59;;;;;;;0.20;0.20;;;17.50;99.90;;;;;;5083506;28;20200;-80
2022/08/30 01:12:25;;;;;;;0.43;0.30;;;17.50;99.90;;;;;;5076846;28;20239;-79
2022/08/30 01:14:50;;;;;;;0.30;0.30;;;17.50;99.90;;;;;;5081082;28;20183;-80
2022/08/30 01:17:17;;;;;;;0.37;0.37;;;17.50;99.90;;;;;;5076843;28;20678;-80
2022/08/30 01:19:48;;;;;;;0.40;0.40;;;17.50;99.90;;;;;;5085033;28;20260;-80
2022/08/30 01:22:31;;;;;;;0.30;0.30;;;17.50;99.90;;;;;;5084425;28;20238;-80
2022/08/30 01:24:59;;;;;;;0.20;0.20;;;17.60;99.90;;;;;;5078777;28;20676;-80
2022/08/30 01:27:27;;;;;;;0.27;0.27;;;17.60;99.90;;;;;;5085539;28;20683;-80
2022/08/30 01:29:54;;;;;;;1.30;0.53;;;17.60;99.90;;;;;;5086120;28;20282;-80
2022/08/30 01:32:23;;;;;;;0.50;0.50;;;17.60;99.90;;;;;;5089354;28;20647;-80
2022/08/30 01:34:49;;;;;;;0.27;0.27;;;17.60;99.90;;;;;;5079917;28;20560;-80
2022/08/30 01:37:27;;;;;;;2.33;0.43;;;17.70;99.90;;;;;;5087515;28;20199;-80
2022/08/30 01:39:53;;;;;;;0.20;0.20;;;17.90;99.90;;;;;;5086038;28;20245;-80
2022/08/30 01:42:19;;;;;;;0.20;0.20;;;18.00;99.90;;;;;;5089115;28;20219;-80
2022/08/30 01:44:45;;;;;;;0.30;0.30;;;18.00;99.90;;;;;;5088658;28;20183;-80
2022/08/30 01:47:12;;;;;;;0.30;0.23;;;18.00;99.90;;;;;;5098872;28;20179;-80
2022/08/30 01:49:38;;;;;;;0.40;0.40;;;18.00;99.90;;;;;;5085997;28;20223;-80
2022/08/30 01:52:05;;;;;;;0.20;0.20;;;18.00;99.90;;;;;;5081291;28;20211;-80
2022/08/30 01:54:32;;;;;;;0.40;0.40;;;17.90;99.90;;;;;;5097746;28;20204;-80
2022/08/30 01:56:58;;;;;;;0.20;0.20;;;17.80;99.90;;;;;;5090704;28;20239;-80
2022/08/30 01:59:23;;;;;;;0.50;0.50;;;17.70;99.90;;;;;;5081781;28;20579;-80
2022/08/30 02:01:49;;;;;;;0.37;0.37;;;17.50;99.90;;;;;;5095054;28;20814;-80
2022/08/30 02:04:15;;;;;;;0.80;0.60;;;17.40;99.90;;;;;;5085273;28;20180;-80
2022/08/30 02:06:41;;;;;;;0.50;0.50;;;17.50;99.90;;;;;;5084875;28;20176;-80
2022/08/30 02:09:06;;;;;;;0.27;0.27;;;17.70;99.90;;;;;;5082507;28;20827;-80
2022/08/30 02:11:33;;;;;;;0.80;0.40;;;17.80;99.90;;;;;;5096047;28;20215;-80
2022/08/30 02:13:58;;;;;;;0.37;0.37;;;17.70;99.90;;;;;;5098954;28;20260;-80
2022/08/30 02:16:24;;;;;;;0.33;0.33;;;17.80;99.90;;;;;;5082026;28;20461;-80
2022/08/30 02:18:52;;;;;;;0.30;0.30;;;17.90;99.90;;;;;;5106376;28;20245;-80
2022/08/30 02:21:18;;;;;;;0.23;0.23;;;17.80;99.90;;;;;;5085656;28;20184;-80
2022/08/30 02:23:43;;;;;;;0.23;0.23;;;17.60;99.90;;;;;;5097839;28;20560;-80
2022/08/30 02:26:10;;;;;;;0.20;0.20;;;17.40;99.90;;;;;;5085081;28;20179;-80
2022/08/30 02:28:36;;;;;;;0.60;0.30;;;17.20;99.90;;;;;;5103588;28;20211;-80
2022/08/30 02:31:02;;;;;;;0.50;0.50;;;17.10;99.90;;;;;;5092317;28;20184;-80
2022/08/30 02:33:27;;;;;;;0.30;0.30;;;16.90;99.90;;;;;;5119528;27;20195;-80
2022/08/30 02:35:53;;;;;;;0.30;0.30;;;16.80;99.90;;;;;;5088874;28;20259;-80
2022/08/30 02:38:18;;;;;;;0.50;0.40;;;16.70;99.90;;;;;;5095133;28;20746;-80
2022/08/30 02:40:44;;;;;;;0.50;0.50;;;16.60;99.90;;;;;;5081865;28;20255;-80
2022/08/30 02:43:10;;;;;;;0.37;0.37;;;16.60;99.90;;;;;;5088560;28;20200;-80
2022/08/30 02:45:36;;;;;;;1.03;0.50;;;16.50;99.90;;;;;;5099231;28;20208;-80
2022/08/30 02:48:03;;;;;;;0.30;0.30;;;16.50;99.90;;;;;;5085382;28;20259;-80
2022/08/30 02:50:30;;;;;;;0.47;0.47;;;16.40;99.90;;;;;;5083990;28;20199;-80
2022/08/30 02:52:55;;;;;;;0.57;0.57;;;16.30;99.90;;;;;;5091916;28;20188;-80
2022/08/30 02:55:21;;;;;;;0.47;0.30;;;16.40;99.90;;;;;;5102145;28;20202;-80
2022/08/30 02:57:47;;;;;;;0.27;0.20;;;16.40;99.90;;;;;;5082343;28;20219;-80
2022/08/30 03:00:15;;;;;;;0.20;0.20;;;16.50;99.90;;;;;;5078269;28;20204;-81
2022/08/30 03:02:41;;;;;;;0.50;0.50;;;16.60;99.90;;;;;;5094014;28;20528;-81
2022/08/30 03:05:09;;;;;;;0.30;0.30;;;16.70;99.90;;;;;;5107309;28;20200;-80
2022/08/30 03:07:35;;;;;;;0.43;0.43;;;16.80;99.90;;;;;;5093506;28;20956;-80
2022/08/30 03:10:00;;;;;;;0.17;0.17;;;16.90;99.90;;;;;;5093469;28;20285;-80
2022/08/30 03:12:26;;;;;;;0.53;0.37;;;16.90;99.90;;;;;;5097727;28;20240;-80
2022/08/30 03:14:52;;;;;;;0.53;0.30;;;16.90;99.90;;;;;;5085510;28;20216;-80
2022/08/30 03:17:17;;;;;;;0.33;0.30;;;16.80;99.90;;;;;;5095288;28;20210;-80
2022/08/30 03:19:43;;;;;;;0.30;0.30;;;16.90;99.90;;;;;;5101034;28;20200;-80
2022/08/30 03:22:09;;;;;;;0.20;0.20;;;16.90;99.90;;;;;;5092357;28;20183;-80
2022/08/30 03:24:35;;;;;;;0.33;0.30;;;16.90;99.90;;;;;;5088502;28;20187;-80
2022/08/30 03:27:01;;;;;;;0.20;0.20;;;17.00;99.90;;;;;;5096069;28;20184;-80
2022/08/30 03:29:28;;;;;;;0.67;0.57;;;17.00;99.90;;;;;;5087675;28;20210;-81
2022/08/30 03:31:54;;;;;;;0.30;0.30;;;17.10;99.90;;;;;;5104129;28;20191;-80
2022/08/30 03:34:21;;;;;;;0.20;0.20;;;17.10;99.90;;;;;;5097556;28;20253;-80
2022/08/30 03:36:48;;;;;;;0.43;0.43;;;17.10;99.90;;;;;;5093395;28;20243;-81
2022/08/30 03:39:14;;;;;;;0.40;0.40;;;17.10;99.90;;;;;;5085316;28;20205;-81
2022/08/30 03:41:39;;;;;;;0.27;0.27;;;17.30;99.90;;;;;;5085171;28;20181;-80
2022/08/30 03:44:05;;;;;;;0.67;0.67;;;17.30;99.90;;;;;;5092150;28;20547;-80
2022/08/30 03:46:30;;;;;;;0.23;0.23;;;17.40;99.90;;;;;;5083639;28;20207;-81
2022/08/30 03:48:56;;;;;;;0.13;0.13;;;17.20;99.90;;;;;;5084259;28;20592;-80
2022/08/30 03:51:23;;;;;;;0.30;0.30;;;17.00;99.90;;;;;;5079477;28;20631;-80
2022/08/30 03:53:48;;;;;;;1.57;1.00;;;17.10;99.90;;;;;;5078802;28;20181;-80
2022/08/30 03:56:14;;;;;;;0.80;0.57;;;16.90;99.90;;;;;;5084982;28;20665;-80
2022/08/30 03:58:40;;;;;;;0.17;0.17;;;16.80;99.90;;;;;;5082039;28;20213;-80
2022/08/30 04:01:07;;;;;;;0.10;0.10;;;16.70;99.90;;;;;;5085217;28;20733;-80
2022/08/30 04:03:32;;;;;;;1.97;0.50;;;16.60;99.90;;;;;;5079689;28;20604;-80
2022/08/30 04:05:59;;;;;;;0.43;0.43;;;16.50;99.90;;;;;;5090926;28;20184;-80
2022/08/30 04:08:26;;;;;;;0.43;0.30;;;16.50;99.90;;;;;;5076684;28;20236;-80
2022/08/30 04:10:52;;;;;;;0.10;0.10;;;16.60;99.90;;;;;;5072192;28;20185;-81
2022/08/30 04:13:19;;;;;;;0.50;0.50;;;16.80;99.90;;;;;;5085005;28;20188;-81
2022/08/30 04:15:45;;;;;;;0.33;0.27;;;16.90;99.90;;;;;;5086816;28;20313;-81
2022/08/30 04:18:11;;;;;;;0.37;0.37;;;16.90;99.90;;;;;;5086755;28;20299;-81
2022/08/30 04:20:37;;;;;;;0.53;0.33;;;17.00;99.90;;;;;;5078587;28;20204;-81
2022/08/30 04:23:05;;;;;;;0.20;0.20;;;17.00;99.90;;;;;;5073118;28;20173;-81
2022/08/30 04:25:32;;;;;;;0.20;0.20;;;17.00;99.90;;;;;;5078318;28;20177;-81
2022/08/30 04:27:57;;;;;;;0.53;0.47;;;17.00;99.90;;;;;;5091601;28;20180;-81
2022/08/30 04:30:23;;;;;;;3.47;0.53;;;17.00;99.90;;;;;;5076217;28;20308;-81
2022/08/30 04:32:48;;;;;;;0.30;0.30;;;17.00;99.90;;;;;;5093719;28;20699;-81
2022/08/30 04:35:14;;;;;;;0.30;0.30;;;17.00;99.90;;;;;;5080331;28;20211;-81
2022/08/30 04:37:40;;;;;;;0.33;0.33;;;17.10;99.90;;;;;;5084298;28;20204;-81
2022/08/30 04:40:06;;;;;;;0.20;0.20;;;17.10;99.90;;;;;;5078834;28;20560;-81
2022/08/30 04:42:34;;;;;;;0.30;0.30;;;17.20;99.90;;;;;;5081557;28;20181;-81
2022/08/30 04:45:13;;;;;;;0.20;0.20;;;17.10;99.90;;;;;;5078328;28;20173;-81
2022/08/30 04:47:40;;;;;;;0.30;0.30;;;16.90;99.90;;;;;;5075308;28;20633;-81
2022/08/30 04:50:07;;;;;;;0.10;0.10;;;16.70;99.90;;;;;;5079326;28;20213;-81
2022/08/30 04:52:33;;;;;;;0.30;0.27;;;16.80;99.90;;;;;;5098409;28;20322;-82
2022/08/30 04:54:58;;;;;;;0.20;0.20;;;16.90;99.90;;;;;;5083555;28;20219;-81
2022/08/30 04:57:26;;;;;;;0.53;0.30;;;17.00;99.90;;;;;;5081417;28;20200;-81
2022/08/30 04:59:52;;;;;;;0.30;0.30;;;17.10;99.90;;;;;;5075910;28;20208;-81
2022/08/30 05:02:18;;;;;;;1.80;0.40;;;17.20;99.90;;;;;;5087273;28;20664;-81
2022/08/30 05:07:30;;;;;;;0.70;0.70;;;17.20;99.90;;;;;;5094767;28;20183;-80
2022/08/30 05:09:55;;;;;;;0.30;0.30;;;17.30;99.90;;;;;;5077585;28;20287;-80
2022/08/30 05:12:21;;;;;;;0.27;0.27;;;17.20;99.90;;;;;;5073700;28;20288;-80
2022/08/30 05:14:47;;;;;;;3.60;0.40;;;17.20;99.90;;;;;;5093637;28;20205;-80
2022/08/30 05:17:12;;;;;;;0.47;0.47;;;17.30;99.90;;;;;;5098505;28;20214;-80
2022/08/30 05:19:38;;;;;;;0.20;0.20;;;17.40;99.90;;;;;;5102762;28;20208;-80
2022/08/30 05:22:03;;;;;;;0.30;0.30;;;17.60;99.90;;;;;;5094968;28;20263;-80
2022/08/30 05:24:30;;;;;;;0.20;0.20;;;17.70;99.90;;;;;;5089894;28;20275;-80
2022/08/30 05:26:57;;;;;;;0.20;0.20;;;17.80;99.90;;;;;;5088973;28;20219;-81
2022/08/30 05:29:22;;;;;;;0.50;0.40;;;17.90;99.90;;;;;;5076538;28;20215;-80
2022/08/30 05:31:48;;;;;;;0.30;0.30;;;17.90;99.90;;;;;;5093114;28;20187;-81
2022/08/30 05:34:13;;;;;;;0.10;0.10;;;18.00;99.90;;;;;;5078004;28;20197;-81
2022/08/30 05:36:39;;;;;;;0.23;0.23;;;18.10;99.90;;;;;;5090860;28;20178;-80
2022/08/30 05:39:09;;;;;;;1.43;0.70;;;18.30;99.90;;;;;;5082463;28;20224;-80
2022/08/30 05:41:36;;;;;;;0.83;0.40;;;18.40;99.90;;;;;;5074190;28;21016;-80
2022/08/30 05:44:03;;;;;;;0.60;0.30;;;18.50;99.90;;;;;;5094020;28;20172;-80
2022/08/30 05:46:32;;;;;;;0.20;0.20;;;18.70;99.90;;;;;;5098368;28;20188;-80
2022/08/30 05:48:58;;;;;;;0.63;0.40;;;18.70;99.90;;;;;;5102384;28;20298;-81
2022/08/30 05:51:25;;;;;;;0.43;0.43;;;18.70;99.90;;;;;;5086513;28;20311;-80
2022/08/30 05:53:52;;;;;;;1.50;0.43;;;18.70;99.90;;;;;;5094154;28;20188;-80
2022/08/30 05:56:20;;;;;;;0.40;0.30;;;18.90;99.90;;;;;;5084463;28;20196;-80
2022/08/30 05:58:46;;;;;;;0.73;0.50;;;19.10;99.90;;;;;;5083124;28;20215;-80
2022/08/30 06:01:22;;;;;;;0.50;0.50;;;19.20;99.90;;;;;;5086466;28;20257;-80
2022/08/30 06:03:48;;;;;;;0.40;0.40;;;19.20;99.90;;;;;;5088266;28;20186;-80
2022/08/30 06:06:14;;;;;;;0.30;0.30;;;19.20;99.90;;;;;;5089946;28;20263;-80
2022/08/30 06:08:41;;;;;;;1.03;0.80;;;19.30;99.90;;;;;;5092910;28;20610;-80
2022/08/30 06:11:06;;;;;;;0.60;0.60;;;19.00;99.90;;;;;;5098590;28;20194;-81
2022/08/30 06:13:32;;;;;;;3.63;0.70;;;18.90;99.90;;;;;;5092700;28;20732;-80
2022/08/30 06:15:58;;;;;;;0.90;0.90;;;19.20;99.90;;;;;;5088384;28;20568;-81
2022/08/30 06:18:23;;;;;;;1.43;0.83;;;19.50;99.90;;;;;;5090731;28;20213;-80
2022/08/30 06:20:50;;;;;;;0.23;0.23;;;19.70;99.90;;;;;;5086561;28;20193;-80
2022/08/30 06:23:16;;;;;;;0.63;0.63;;;19.90;99.90;;;;;;5099140;28;20180;-80
2022/08/30 06:25:43;;;;;;;0.20;0.20;;;20.10;99.90;;;;;;5098748;28;20221;-80
2022/08/30 06:28:10;;;;;;;1.20;0.60;;;20.30;99.90;;;;;;5083061;28;20285;-81
2022/08/30 06:30:38;;;;;;;1.63;1.10;;;20.60;99.90;;;;;;5092300;28;20267;-80
2022/08/30 06:33:03;;;;;;;0.57;0.57;;;20.60;99.90;;;;;;5098624;28;20182;-80
2022/08/30 06:35:30;;;;;;;0.50;0.50;;;20.70;99.90;;;;;;5084991;28;20207;-80
2022/08/30 06:37:56;;;;;;;0.40;0.40;;;20.60;99.90;;;;;;5084461;28;20204;-81
2022/08/30 06:40:22;;;;;;;1.20;0.40;;;20.90;99.90;;;;;;5082904;28;20204;-78
2022/08/30 06:42:48;;;;;;;0.83;0.30;;;21.00;99.90;;;;;;5084785;28;20179;-77
2022/08/30 06:45:15;;;;;;;0.83;0.83;;;21.20;99.90;;;;;;5094457;28;20180;-80
2022/08/30 06:47:40;;;;;;;0.40;0.40;;;21.40;99.90;;;;;;5096748;28;20189;-80
2022/08/30 06:50:07;;;;;;;0.57;0.57;;;21.60;99.90;;;;;;5087552;28;20215;-79
2022/08/30 06:52:32;;;;;;;1.17;0.73;;;21.70;99.90;;;;;;5086509;28;20188;-80
2022/08/30 06:54:58;;;;;;;0.20;0.20;;;20.90;99.90;;;;;;5091400;28;20665;-79
2022/08/30 06:57:25;;;;;;;0.30;0.27;;;20.90;99.90;;;;;;5088416;28;20624;-79
2022/08/30 06:59:55;;;;;;;0.20;0.20;;;21.10;99.90;;;;;;5085917;28;20901;-79
2022/08/30 07:02:21;;;;;;;0.50;0.50;;;21.20;99.90;;;;;;5091599;28;20549;-79
2022/08/30 07:04:47;;;;;;;0.40;0.40;;;21.50;99.90;;;;;;5093873;28;20180;-79
2022/08/30 07:07:13;;;;;;;0.53;0.53;;;21.80;99.90;;;;;;5100550;27;20230;-78
2022/08/30 07:09:42;;;;;;;0.53;0.30;;;21.90;99.90;;;;;;5088197;28;20286;-79
2022/08/30 07:12:08;;;;;;;0.43;0.43;;;22.10;99.90;;;;;;5089065;28;20263;-79
2022/08/30 07:14:34;;;;;;;0.30;0.30;;;22.00;99.90;;;;;;5087445;28;20181;-79
2022/08/30 07:17:00;;;;;;;0.40;0.40;;;22.20;99.90;;;;;;5089319;28;20184;-79
2022/08/30 07:19:25;;;;;;;0.30;0.30;;;22.80;99.90;;;;;;5086068;28;20189;-78
2022/08/30 07:21:51;;;;;;;0.97;0.97;;;23.20;99.90;;;;;;5094089;28;20184;-79
2022/08/30 07:24:17;;;;;;;0.20;0.20;;;22.80;99.90;;;;;;5089418;28;20657;-79
2022/08/30 07:26:48;;;;;;;0.87;0.50;;;22.60;99.90;;;;;;5096519;28;20195;-79
2022/08/30 07:29:14;;;;;;;1.03;0.30;;;22.70;99.90;;;;;;5091265;28;20732;-79
2022/08/30 07:31:40;;;;;;;0.20;0.20;;;23.10;99.90;;;;;;5096118;28;20279;-79
2022/08/30 07:34:06;;;;;;;0.87;0.70;;;23.20;99.90;;;;;;5094332;28;20359;-79
2022/08/30 07:36:33;;;;;;;0.60;0.53;;;23.30;99.90;;;;;;5084890;28;20199;-79
2022/08/30 07:38:59;;;;;;;0.43;0.43;;;23.20;99.90;;;;;;5091131;28;20213;-79
2022/08/30 07:41:31;;;;;;;0.43;0.43;;;23.00;99.90;;;;;;5083115;28;20740;-79
2022/08/30 07:43:57;;;;;;;0.60;0.40;;;23.00;99.90;;;;;;5076831;28;20642;-79
2022/08/30 07:46:24;;;;;;;1.23;0.93;;;23.00;99.90;;;;;;5082050;28;20169;-79
2022/08/30 07:48:50;;;;;;;0.47;0.47;;;23.20;99.90;;;;;;5091803;28;20215;-79
2022/08/30 07:51:19;;;;;;;0.30;0.30;;;23.70;99.90;;;;;;5086134;28;20549;-80
2022/08/30 07:53:45;;;;;;;0.50;0.50;;;23.90;99.90;;;;;;5090900;28;20218;-80
2022/08/30 07:56:11;;;;;;;0.30;0.30;;;24.40;99.90;;;;;;5087705;28;20208;-79
2022/08/30 07:58:38;;;;;;;0.80;0.30;;;24.50;99.90;;;;;;5082157;28;21305;-80
2022/08/30 08:01:09;;;;;;;0.50;0.50;;;24.20;99.90;;;;;;5087985;28;20168;-80
2022/08/30 08:03:36;;;;;;;0.30;0.30;;;23.90;99.90;;;;;;5079872;28;21005;-80
2022/08/30 08:06:04;;;;;;;0.40;0.40;;;23.80;99.90;;;;;;5088841;28;20229;-80
2022/08/30 08:08:30;;;;;;;0.53;0.53;;;23.90;99.90;;;;;;5085725;28;20240;-81
2022/08/30 08:10:56;;;;;;;1.60;0.97;;;23.80;99.90;;;;;;5089557;28;20223;-80
2022/08/30 08:13:23;;;;;;;0.53;0.50;;;23.90;99.90;;;;;;5079830;28;20185;-80
2022/08/30 08:15:49;;;;;;;0.63;0.63;;;24.10;99.90;;;;;;5085947;28;20210;-80
2022/08/30 08:18:14;;;;;;;0.77;0.50;;;24.10;99.90;;;;;;5084037;28;20248;-81
2022/08/30 08:20:40;;;;;;;0.47;0.30;;;23.90;99.90;;;;;;5093223;28;20591;-81
2022/08/30 08:23:06;;;;;;;1.43;0.70;;;23.80;99.90;;;;;;5088197;28;20228;-80
2022/08/30 08:25:32;;;;;;;0.80;0.60;;;23.70;99.90;;;;;;5090733;28;20180;-80
2022/08/30 08:27:58;;;;;;;1.33;0.63;;;24.00;99.90;;;;;;5095514;28;20212;-80
2022/08/30 08:30:23;;;;;;;0.37;0.30;;;24.30;99.90;;;;;;5090891;28;20689;-81
2022/08/30 08:32:49;;;;;;;0.57;0.57;;;24.40;99.90;;;;;;5089336;28;20213;-80
2022/08/30 08:35:16;;;;;;;1.30;0.37;;;24.40;99.90;;;;;;5091231;28;21104;-80
2022/08/30 08:37:42;;;;;;;0.20;0.20;;;24.10;99.90;;;;;;5096591;28;20304;-80
2022/08/30 08:40:11;;;;;;;1.13;0.40;;;24.10;99.90;;;;;;5086938;28;20267;-80
2022/08/30 08:43:09;;;;;;;2.00;0.37;;;24.50;99.90;;;;;;5082928;28;20187;-80
2022/08/30 08:45:46;;;;;;;0.10;0.10;;;24.90;99.90;;;;;;5082216;28;20181;-80
2022/08/30 08:48:40;;;;;;;0.40;0.40;;;24.60;99.90;;;;;;5088525;28;20195;-82
2022/08/30 08:54:07;;;;;;;1.17;0.50;;;25.00;99.90;;;;;;5085164;28;20191;-82
2022/08/30 08:56:33;;;;;;;1.57;1.47;;;24.80;99.90;;;;;;5084781;28;20185;-82
2022/08/30 08:58:58;;;;;;;1.33;0.37;;;25.10;99.90;;;;;;5083631;28;20208;-82
2022/08/30 09:01:27;;;;;;;1.23;1.10;;;25.00;99.90;;;;;;5086497;28;20176;-80
2022/08/30 09:03:54;;;;;;;0.43;0.43;;;25.50;99.90;;;;;;5077031;28;20330;-80
2022/08/30 09:06:48;;;;;;;1.07;0.97;;;25.60;99.90;;;;;;5079038;28;20274;-80
2022/08/30 09:09:15;;;;;;;0.33;0.33;;;26.10;99.90;;;;;;5100279;28;20687;-80
2022/08/30 09:11:41;;;;;;;0.70;0.70;;;25.80;99.90;;;;;;5081017;28;20188;-81
2022/08/30 09:14:12;;;;;;;0.40;0.40;;;25.90;99.90;;;;;;5079989;28;20181;-81
2022/08/30 09:16:59;;;;;;;0.63;0.37;;;25.20;99.90;;;;;;5078856;28;20211;-80
2022/08/30 09:19:40;;;;;;;0.23;0.23;;;25.10;99.90;;;;;;5075418;28;20208;-79
2022/08/30 09:22:21;;;;;;;0.50;0.50;;;25.20;99.90;;;;;;5084472;28;20184;-81
2022/08/30 09:24:50;;;;;;;0.30;0.30;;;25.40;99.90;;;;;;5075499;28;20164;-81
2022/08/30 09:27:29;;;;;;;0.67;0.67;;;25.90;99.90;;;;;;5083904;28;20206;-81
2022/08/30 09:30:03;;;;;;;1.27;0.87;;;26.10;99.90;;;;;;5086031;28;20291;-81
2022/08/30 09:32:38;;;;;;;0.80;0.80;;;25.70;99.90;;;;;;5083099;28;20184;-83
2022/08/30 09:35:06;;;;;;;0.67;0.50;;;25.90;99.90;;;;;;5084099;28;20172;-80
2022/08/30 09:37:51;;;;;;;1.60;0.50;;;25.70;99.90;;;;;;5083333;28;20210;-81
2022/08/30 09:40:25;;;;;;;1.00;0.70;;;26.00;99.90;;;;;;5081145;28;20565;-81
2022/08/30 09:43:07;;;;;;;0.60;0.60;;;26.30;99.90;;;;;;5084183;28;20172;-81
2022/08/30 09:45:37;;;;;;;0.40;0.40;;;26.30;99.90;;;;;;5084720;28;20186;-81
2022/08/30 09:48:39;;;;;;;0.67;0.60;;;26.80;99.90;;;;;;5074342;28;20180;-80
2022/08/30 09:51:10;;;;;;;1.50;0.67;;;27.30;99.90;;;;;;5082355;28;20709;-81
2022/08/30 09:54:04;;;;;;;0.30;0.30;;;26.40;99.90;;;;;;5088232;28;20188;-81
2022/08/30 09:56:50;;;;;;;0.73;0.40;;;26.70;99.90;;;;;;5076103;28;20196;-81
2022/08/30 09:59:24;;;;;;;1.80;0.60;;;26.70;99.90;;;;;;5075976;28;20236;-81
2022/08/30 10:02:00;;;;;;;1.17;0.77;;;27.40;99.90;;;;;;5084138;28;20184;-81
2022/08/30 10:05:09;;;;;;;0.30;0.30;;;27.20;99.90;;;;;;5073125;28;20181;-81
2022/08/30 10:07:52;;;;;;;0.67;0.30;;;26.90;99.90;;;;;;5083140;28;20184;-81
2022/08/30 10:10:42;;;;;;;0.70;0.70;;;26.80;99.90;;;;;;5075394;28;20211;-81
2022/08/30 10:13:35;;;;;;;0.30;0.30;;;27.20;99.90;;;;;;5079116;28;20271;-81
2022/08/30 10:16:15;;;;;;;0.40;0.40;;;27.60;99.90;;;;;;5072298;28;20575;-81
2022/08/30 10:18:52;;;;;;;1.17;0.57;;;27.00;99.90;;;;;;5079453;28;20208;-81
2022/08/30 10:21:27;;;;;;;0.30;0.30;;;27.00;99.90;;;;;;5076131;28;20185;-81
2022/08/30 10:24:03;;;;;;;0.60;0.50;;;27.40;99.90;;;;;;5083446;28;20251;-81
2022/08/30 10:27:01;;;;;;;0.43;0.43;;;27.40;99.90;;;;;;5083516;28;20215;-81
2022/08/30 10:29:39;;;;;;;0.40;0.37;;;27.70;99.90;;;;;;5069927;28;20296;-81
2022/08/30 10:32:16;;;;;;;0.60;0.60;;;27.30;99.90;;;;;;5082877;28;20176;-81
2022/08/30 10:34:47;;;;;;;0.67;0.50;;;27.40;99.90;;;;;;5081536;28;20180;-81
2022/08/30 10:37:22;;;;;;;1.13;1.03;;;26.90;99.90;;;;;;5082198;28;20185;-81
2022/08/30 10:39:57;;;;;;;0.40;0.40;;;27.10;99.90;;;;;;5079516;28;20207;-81
2022/08/30 10:42:31;;;;;;;0.67;0.67;;;27.10;99.90;;;;;;5084471;28;20176;-81
2022/08/30 10:45:12;;;;;;;0.40;0.40;;;27.40;99.90;;;;;;5085491;28;20198;-81
2022/08/30 10:47:46;;;;;;;1.05;0.82;;;28.00;99.90;;;;;;5086486;28;20221;-81
2022/08/30 10:50:19;;;;;;;0.57;0.57;;;27.70;99.90;;;;;;5086319;28;20234;-81
2022/08/30 10:52:53;;;;;;;1.40;1.27;;;27.60;99.90;;;;;;5085943;28;20187;-81
2022/08/30 10:55:21;;;;;;;0.60;0.60;;;27.60;99.90;;;;;;5089322;28;20179;-81
2022/08/30 10:57:47;;;;;;;0.30;0.30;;;27.80;99.90;;;;;;5081108;28;20224;-81
2022/08/30 11:00:21;;;;;;;0.50;0.50;;;28.40;99.90;;;;;;5082958;28;20200;-82
2022/08/30 11:03:14;;;;;;;0.40;0.40;;;28.40;99.90;;;;;;5082308;28;20176;-81
2022/08/30 11:06:05;;;;;;;0.77;0.57;;;28.50;99.90;;;;;;5082832;28;20177;-82
2022/08/30 11:09:03;;;;;;;0.38;0.38;;;28.30;99.90;;;;;;5080823;28;20623;-81
2022/08/30 11:11:38;;;;;;;0.43;0.40;;;27.90;99.90;;;;;;5041733;28;20280;-81
2022/08/30 11:14:06;;;;;;;0.50;0.50;;;27.90;99.90;;;;;;5089639;28;20171;-81
2022/08/30 11:16:41;;;;;;;0.63;0.63;;;28.00;99.90;;;;;;5091794;28;20271;-81
2022/08/30 11:19:20;;;;;;;0.47;0.47;;;28.60;99.90;;;;;;5090196;28;20681;-82
2022/08/30 11:21:47;;;;;;;1.83;1.60;;;28.70;99.90;;;;;;5087590;28;20180;-81
2022/08/30 11:24:18;;;;;;;0.50;0.50;;;29.00;99.90;;;;;;5088940;28;20244;-81
2022/08/30 11:26:43;;;;;;;0.60;0.60;;;28.20;99.90;;;;;;5079101;28;20187;-81
2022/08/30 11:29:26;;;;;;;0.75;0.75;;;28.60;99.90;;;;;;5078586;28;20284;-81
2022/08/30 11:31:53;;;;;;;0.77;0.77;;;28.70;99.90;;;;;;5089275;28;20212;-81
2022/08/30 11:34:43;;;;;;;2.40;0.77;;;29.00;99.90;;;;;;5088668;28;20193;-81
2022/08/30 11:37:10;;;;;;;0.50;0.50;;;28.50;99.90;;;;;;5084764;28;20192;-81
2022/08/30 11:39:49;;;;;;;0.73;0.60;;;28.80;99.90;;;;;;5078420;28;20207;-81
2022/08/30 11:42:46;;;;;;;0.52;0.52;;;29.20;99.90;;;;;;5080252;28;20227;-81
2022/08/30 11:45:23;;;;;;;0.43;0.43;;;29.30;99.90;;;;;;5079775;28;20174;-81
2022/08/30 11:47:53;;;;;;;0.90;0.70;;;29.60;99.90;;;;;;5078918;28;20176;-81
2022/08/30 11:50:37;;;;;;;0.73;0.73;;;29.30;99.90;;;;;;5082874;28;20216;-81
2022/08/30 11:53:02;;;;;;;0.68;0.68;;;28.90;99.90;;;;;;5083502;28;20176;-79
2022/08/30 11:55:44;;;;;;;0.40;0.40;;;29.20;99.90;;;;;;5087890;28;20854;-79
2022/08/30 11:58:35;;;;;;;0.93;0.70;;;29.40;99.90;;;;;;5084283;28;20235;-80
2022/08/30 12:01:27;;;;;;;0.55;0.55;;;29.00;99.90;;;;;;5084279;28;20180;-80
2022/08/30 12:04:10;;;;;;;0.98;0.47;;;29.00;99.90;;;;;;5073094;28;20189;-79
2022/08/30 12:06:44;;;;;;;1.48;1.35;;;29.60;99.90;;;;;;5085538;28;20185;-80
2022/08/30 12:09:12;;;;;;;2.55;1.88;;;29.20;99.90;;;;;;5087231;28;20195;-80
2022/08/30 12:11:37;;;;;;;2.70;2.03;;;29.50;99.90;;;;;;5086937;28;20180;-80
2022/08/30 12:14:06;;;;;;;1.10;1.02;;;29.30;99.90;;;;;;5080588;28;20184;-80
2022/08/30 12:18:26;;;;;;;0.95;0.75;;;29.70;99.90;;;;;;5082951;28;20291;-81
2022/08/30 12:19:29;;;;;;;1.40;1.10;;;29.00;99.90;;;;;;5083378;28;20689;-80
2022/08/30 12:22:01;;;;;;;1.38;0.50;;;29.10;99.90;;;;;;5082363;28;20192;-80
2022/08/30 12:24:31;;;;;;;2.85;1.10;;;29.20;99.90;;;;;;5080540;28;20179;-80
2022/08/30 12:26:58;;;;;;;1.13;0.85;;;29.40;99.90;;;;;;5079477;28;20634;-80
2022/08/30 12:29:26;;;;;;;0.57;0.57;;;29.00;99.90;;;;;;5083055;28;20208;-81
2022/08/30 12:31:58;;;;;;;0.50;0.50;;;29.00;99.90;;;;;;5077462;28;20176;-80
2022/08/30 12:34:26;;;;;;;0.47;0.40;;;29.50;99.90;;;;;;5083430;28;20219;-80
2022/08/30 12:37:06;;;;;;;0.70;0.70;;;30.00;99.90;;;;;;5081884;28;20195;-81
2022/08/30 12:39:34;;;;;;;1.02;0.77;;;30.40;99.90;;;;;;5080974;28;20215;-81
2022/08/30 12:42:10;;;;;;;1.42;0.60;;;29.70;99.90;;;;;;5085494;28;20185;-81
2022/08/30 12:44:37;;;;;;;0.50;0.50;;;29.60;99.90;;;;;;5082929;28;20186;-81
2022/08/30 12:47:05;;;;;;;0.47;0.47;;;29.40;99.90;;;;;;5079945;28;20309;-81
2022/08/30 12:49:34;;;;;;;0.77;0.60;;;30.10;99.90;;;;;;5081378;28;20215;-81
2022/08/30 12:52:22;;;;;;;2.38;0.80;;;30.00;99.90;;;;;;5080663;28;20202;-81
2022/08/30 12:54:48;;;;;;;0.43;0.43;;;29.20;99.90;;;;;;5088596;28;20185;-81
2022/08/30 12:57:43;;;;;;;0.60;0.60;;;29.40;99.90;;;;;;5079824;28;20700;-81
2022/08/30 13:00:22;;;;;;;0.65;0.55;;;29.40;99.90;;;;;;5076781;28;20220;-81
2022/08/30 13:02:51;;;;;;;0.28;0.28;;;29.80;99.90;;;;;;5088476;28;20815;-81
2022/08/30 13:05:56;;;;;;;0.43;0.43;;;30.00;99.90;;;;;;5084989;28;20176;-80
2022/08/30 13:08:35;;;;;;;0.75;0.75;;;29.60;99.90;;;;;;5020271;28;20194;-81
2022/08/30 13:11:21;;;;;;;1.10;1.10;;;29.70;99.90;;;;;;5010486;28;20213;-80